sensor_id;sensor_type;location;lat;lon;timestamp;pressure;altitude;pressure_sealevel;temperature;humidity
12358;BME280;6243;51.244;6.774;2024-02-26T00:00:56;115150.97;;;-141.28;38.17
12358;BME280;6243;51.244;6.774;2024-02-26T00:03:22;115150.97;;;-141.28;38.26
12358;BME280;6243;51.244;6.774;2024-02-26T00:05:47;115150.97;;;-141.28;38.00
12358;BME280;6243;51.244;6.774;2024-02-26T00:08:13;115150.97;;;-141.28;38.17
12358;BME280;6243;51.244;6.774;2024-02-26T00:10:39;115150.97;;;-141.28;38.15
12358;BME280;6243;51.244;6.774;2024-02-26T00:13:05;115150.97;;;-141.28;37.72
12358;BME280;6243;51.244;6.774;2024-02-26T00:15:30;115150.97;;;-141.28;38.03
12358;BME280;6243;51.244;6.774;2024-02-26T00:17:56;115150.97;;;-141.28;38.23
12358;BME280;6243;51.244;6.774;2024-02-26T00:20:21;115150.97;;;-141.28;37.90
12358;BME280;6243;51.244;6.774;2024-02-26T00:22:47;115150.97;;;-141.28;37.82
12358;BME280;6243;51.244;6.774;2024-02-26T00:25:12;115150.97;;;-141.28;37.63
12358;BME280;6243;51.244;6.774;2024-02-26T00:27:39;115150.97;;;-141.28;37.93
12358;BME280;6243;51.244;6.774;2024-02-26T00:30:06;115150.97;;;-141.28;38.31
12358;BME280;6243;51.244;6.774;2024-02-26T00:32:32;115150.97;;;-141.28;38.49
12358;BME280;6243;51.244;6.774;2024-02-26T00:34:57;115150.97;;;-141.28;38.42
12358;BME280;6243;51.244;6.774;2024-02-26T00:37:23;115150.97;;;-141.28;38.51
12358;BME280;6243;51.244;6.774;2024-02-26T00:39:48;115150.97;;;-141.28;38.54
12358;BME280;6243;51.244;6.774;2024-02-26T00:42:14;115150.97;;;-141.28;38.63
12358;BME280;6243;51.244;6.774;2024-02-26T00:44:41;115150.97;;;-141.28;38.46
12358;BME280;6243;51.244;6.774;2024-02-26T00:47:07;115150.97;;;-141.28;38.48
12358;BME280;6243;51.244;6.774;2024-02-26T00:49:32;115150.97;;;-141.28;38.30
12358;BME280;6243;51.244;6.774;2024-02-26T00:51:58;115150.97;;;-141.28;38.24
12358;BME280;6243;51.244;6.774;2024-02-26T00:54:23;115150.97;;;-141.28;38.06
12358;BME280;6243;51.244;6.774;2024-02-26T00:56:49;115150.97;;;-141.28;38.12
12358;BME280;6243;51.244;6.774;2024-02-26T00:59:14;115150.97;;;-141.28;38.23
12358;BME280;6243;51.244;6.774;2024-02-26T01:01:41;115150.97;;;-141.28;38.30
12358;BME280;6243;51.244;6.774;2024-02-26T01:04:07;115150.97;;;-141.28;38.36
12358;BME280;6243;51.244;6.774;2024-02-26T01:06:32;115150.97;;;-141.28;38.50
12358;BME280;6243;51.244;6.774;2024-02-26T01:08:58;115150.97;;;-141.28;38.57
12358;BME280;6243;51.244;6.774;2024-02-26T01:11:23;115150.97;;;-141.28;38.76
12358;BME280;6243;51.244;6.774;2024-02-26T01:13:49;115150.97;;;-141.28;38.77
12358;BME280;6243;51.244;6.774;2024-02-26T01:16:15;115150.97;;;-141.28;39.01
12358;BME280;6243;51.244;6.774;2024-02-26T01:18:42;115150.97;;;-141.28;39.19
12358;BME280;6243;51.244;6.774;2024-02-26T01:21:07;115150.97;;;-141.28;39.27
12358;BME280;6243;51.244;6.774;2024-02-26T01:23:33;115150.97;;;-141.28;38.96
12358;BME280;6243;51.244;6.774;2024-02-26T01:25:58;115150.97;;;-141.28;39.42
12358;BME280;6243;51.244;6.774;2024-02-26T01:28:24;115150.97;;;-141.28;39.61
12358;BME280;6243;51.244;6.774;2024-02-26T01:30:49;115150.97;;;-141.28;39.61
12358;BME280;6243;51.244;6.774;2024-02-26T01:33:14;115150.97;;;-141.28;39.60
12358;BME280;6243;51.244;6.774;2024-02-26T01:35:41;115150.97;;;-141.28;39.11
12358;BME280;6243;51.244;6.774;2024-02-26T01:38:07;115150.97;;;-141.28;39.89
12358;BME280;6243;51.244;6.774;2024-02-26T01:40:32;115150.97;;;-141.28;40.42
12358;BME280;6243;51.244;6.774;2024-02-26T01:42:59;115150.97;;;-141.28;40.76
12358;BME280;6243;51.244;6.774;2024-02-26T01:45:24;115150.97;;;-141.28;40.07
12358;BME280;6243;51.244;6.774;2024-02-26T01:47:50;115150.97;;;-141.28;39.79
12358;BME280;6243;51.244;6.774;2024-02-26T01:50:17;115150.97;;;-141.28;39.70
12358;BME280;6243;51.244;6.774;2024-02-26T01:52:44;115150.97;;;-141.28;39.98
12358;BME280;6243;51.244;6.774;2024-02-26T01:55:10;115150.97;;;-141.28;40.25
12358;BME280;6243;51.244;6.774;2024-02-26T01:57:35;115150.97;;;-141.28;40.62
12358;BME280;6243;51.244;6.774;2024-02-26T02:00:01;115150.97;;;-141.28;41.30
12358;BME280;6243;51.244;6.774;2024-02-26T02:02:27;115150.97;;;-141.28;41.44
12358;BME280;6243;51.244;6.774;2024-02-26T02:04:53;115150.97;;;-141.28;41.28
12358;BME280;6243;51.244;6.774;2024-02-26T02:07:19;115150.97;;;-141.28;41.40
12358;BME280;6243;51.244;6.774;2024-02-26T02:09:48;115150.97;;;-141.28;41.72
12358;BME280;6243;51.244;6.774;2024-02-26T02:12:13;115150.97;;;-141.28;41.75
12358;BME280;6243;51.244;6.774;2024-02-26T02:14:39;115150.97;;;-141.28;41.73
12358;BME280;6243;51.244;6.774;2024-02-26T02:17:05;115150.97;;;-141.28;42.28
12358;BME280;6243;51.244;6.774;2024-02-26T02:19:30;115150.97;;;-141.28;42.16
12358;BME280;6243;51.244;6.774;2024-02-26T02:21:57;115150.97;;;-141.28;41.88
12358;BME280;6243;51.244;6.774;2024-02-26T02:24:23;115150.97;;;-141.28;42.30
12358;BME280;6243;51.244;6.774;2024-02-26T02:26:48;115150.97;;;-141.28;43.06
12358;BME280;6243;51.244;6.774;2024-02-26T02:29:14;115150.97;;;-141.28;44.29
12358;BME280;6243;51.244;6.774;2024-02-26T02:31:40;115150.97;;;-141.28;44.28
12358;BME280;6243;51.244;6.774;2024-02-26T02:34:06;115150.97;;;-141.28;44.79
12358;BME280;6243;51.244;6.774;2024-02-26T02:36:32;115150.97;;;-141.28;45.34
12358;BME280;6243;51.244;6.774;2024-02-26T02:38:59;115150.97;;;-141.28;45.71
12358;BME280;6243;51.244;6.774;2024-02-26T02:41:25;115150.97;;;-141.28;46.34
12358;BME280;6243;51.244;6.774;2024-02-26T02:43:50;115150.97;;;-141.28;45.78
12358;BME280;6243;51.244;6.774;2024-02-26T02:46:16;115150.97;;;-141.28;45.99
12358;BME280;6243;51.244;6.774;2024-02-26T02:48:42;115150.97;;;-141.28;45.57
12358;BME280;6243;51.244;6.774;2024-02-26T02:51:07;115150.97;;;-141.28;45.42
12358;BME280;6243;51.244;6.774;2024-02-26T02:53:32;115150.97;;;-141.28;45.86
12358;BME280;6243;51.244;6.774;2024-02-26T02:55:59;115150.97;;;-141.28;44.92
12358;BME280;6243;51.244;6.774;2024-02-26T02:58:25;115150.97;;;-141.28;44.90
12358;BME280;6243;51.244;6.774;2024-02-26T03:00:50;115150.97;;;-141.28;45.01
12358;BME280;6243;51.244;6.774;2024-02-26T03:03:16;115150.97;;;-141.28;44.68
12358;BME280;6243;51.244;6.774;2024-02-26T03:05:41;115150.97;;;-141.28;44.07
12358;BME280;6243;51.244;6.774;2024-02-26T03:08:07;115150.97;;;-141.28;44.81
12358;BME280;6243;51.244;6.774;2024-02-26T03:10:32;115150.97;;;-141.28;45.62
12358;BME280;6243;51.244;6.774;2024-02-26T03:12:59;115150.97;;;-141.28;45.28
12358;BME280;6243;51.244;6.774;2024-02-26T03:15:25;115150.97;;;-141.28;45.23
12358;BME280;6243;51.244;6.774;2024-02-26T03:17:50;115150.97;;;-141.28;46.54
12358;BME280;6243;51.244;6.774;2024-02-26T03:20:16;115150.97;;;-141.28;46.39
12358;BME280;6243;51.244;6.774;2024-02-26T03:22:41;115150.97;;;-141.28;47.39
12358;BME280;6243;51.244;6.774;2024-02-26T03:25:08;115150.97;;;-141.28;47.34
12358;BME280;6243;51.244;6.774;2024-02-26T03:27:33;115150.97;;;-141.28;46.47
12358;BME280;6243;51.244;6.774;2024-02-26T03:30:00;115150.97;;;-141.28;45.91
12358;BME280;6243;51.244;6.774;2024-02-26T03:32:26;115150.97;;;-141.28;45.92
12358;BME280;6243;51.244;6.774;2024-02-26T03:34:51;115150.97;;;-141.28;45.87
12358;BME280;6243;51.244;6.774;2024-02-26T03:37:16;115150.97;;;-141.28;45.52
12358;BME280;6243;51.244;6.774;2024-02-26T03:39:42;115150.97;;;-141.28;45.89
12358;BME280;6243;51.244;6.774;2024-02-26T03:42:07;115150.97;;;-141.28;47.52
12358;BME280;6243;51.244;6.774;2024-02-26T03:44:33;115150.97;;;-141.28;46.20
12358;BME280;6243;51.244;6.774;2024-02-26T03:47:00;115150.97;;;-141.28;45.46
12358;BME280;6243;51.244;6.774;2024-02-26T03:49:25;115150.97;;;-141.28;46.57
12358;BME280;6243;51.244;6.774;2024-02-26T03:51:51;115150.97;;;-141.28;47.49
12358;BME280;6243;51.244;6.774;2024-02-26T03:54:17;115150.97;;;-141.28;47.19
12358;BME280;6243;51.244;6.774;2024-02-26T03:56:42;115150.97;;;-141.28;48.00
12358;BME280;6243;51.244;6.774;2024-02-26T03:59:08;115150.97;;;-141.28;47.23
12358;BME280;6243;51.244;6.774;2024-02-26T04:01:33;115150.97;;;-141.28;46.71
12358;BME280;6243;51.244;6.774;2024-02-26T04:04:00;115150.97;;;-141.28;46.21
12358;BME280;6243;51.244;6.774;2024-02-26T04:06:25;115150.97;;;-141.28;46.31
12358;BME280;6243;51.244;6.774;2024-02-26T04:08:51;115150.97;;;-141.28;47.02
12358;BME280;6243;51.244;6.774;2024-02-26T04:11:16;115150.97;;;-141.28;46.00
12358;BME280;6243;51.244;6.774;2024-02-26T04:13:42;115150.97;;;-141.28;46.34
12358;BME280;6243;51.244;6.774;2024-02-26T04:16:07;115150.97;;;-141.28;46.66
12358;BME280;6243;51.244;6.774;2024-02-26T04:18:33;115150.97;;;-141.28;46.71
12358;BME280;6243;51.244;6.774;2024-02-26T04:21:00;115150.97;;;-141.28;48.64
12358;BME280;6243;51.244;6.774;2024-02-26T04:23:25;115150.97;;;-141.28;48.33
12358;BME280;6243;51.244;6.774;2024-02-26T04:25:51;115150.97;;;-141.28;48.59
12358;BME280;6243;51.244;6.774;2024-02-26T04:28:16;115150.97;;;-141.28;49.68
12358;BME280;6243;51.244;6.774;2024-02-26T04:30:42;115150.97;;;-141.28;49.59
12358;BME280;6243;51.244;6.774;2024-02-26T04:33:07;115150.97;;;-141.28;50.38
12358;BME280;6243;51.244;6.774;2024-02-26T04:35:33;115150.97;;;-141.28;49.08
12358;BME280;6243;51.244;6.774;2024-02-26T04:38:00;115150.97;;;-141.28;49.41
12358;BME280;6243;51.244;6.774;2024-02-26T04:40:25;115150.97;;;-141.28;50.89
12358;BME280;6243;51.244;6.774;2024-02-26T04:42:51;115150.97;;;-141.28;50.43
12358;BME280;6243;51.244;6.774;2024-02-26T04:45:16;115150.97;;;-141.28;49.46
12358;BME280;6243;51.244;6.774;2024-02-26T04:47:42;115150.97;;;-141.28;49.89
12358;BME280;6243;51.244;6.774;2024-02-26T04:50:08;115150.97;;;-141.28;50.21
12358;BME280;6243;51.244;6.774;2024-02-26T04:52:33;115150.97;;;-141.28;50.13
12358;BME280;6243;51.244;6.774;2024-02-26T04:55:00;115150.97;;;-141.28;49.15
12358;BME280;6243;51.244;6.774;2024-02-26T04:57:26;115150.97;;;-141.28;51.66
12358;BME280;6243;51.244;6.774;2024-02-26T04:59:51;115150.97;;;-141.28;50.50
12358;BME280;6243;51.244;6.774;2024-02-26T05:02:17;115150.97;;;-141.28;51.73
12358;BME280;6243;51.244;6.774;2024-02-26T05:04:42;115150.97;;;-141.28;51.60
12358;BME280;6243;51.244;6.774;2024-02-26T05:07:08;115150.97;;;-141.28;51.04
12358;BME280;6243;51.244;6.774;2024-02-26T05:09:34;115150.97;;;-141.28;50.63
12358;BME280;6243;51.244;6.774;2024-02-26T05:12:01;115150.97;;;-141.28;51.80
12358;BME280;6243;51.244;6.774;2024-02-26T05:14:26;115150.97;;;-141.28;51.90
12358;BME280;6243;51.244;6.774;2024-02-26T05:16:52;115150.97;;;-141.28;52.69
12358;BME280;6243;51.244;6.774;2024-02-26T05:19:17;115150.97;;;-141.28;54.56
12358;BME280;6243;51.244;6.774;2024-02-26T05:21:43;115150.97;;;-141.28;52.29
12358;BME280;6243;51.244;6.774;2024-02-26T05:24:08;115150.97;;;-141.28;51.44
12358;BME280;6243;51.244;6.774;2024-02-26T05:26:34;115150.97;;;-141.28;52.83
12358;BME280;6243;51.244;6.774;2024-02-26T05:29:01;115150.97;;;-141.28;53.92
12358;BME280;6243;51.244;6.774;2024-02-26T05:31:27;115150.97;;;-141.28;53.02
12358;BME280;6243;51.244;6.774;2024-02-26T05:33:53;115150.97;;;-141.28;52.86
12358;BME280;6243;51.244;6.774;2024-02-26T05:36:19;115150.97;;;-141.28;53.78
12358;BME280;6243;51.244;6.774;2024-02-26T05:38:44;115150.97;;;-141.28;51.96
12358;BME280;6243;51.244;6.774;2024-02-26T05:41:10;115150.97;;;-141.28;52.03
12358;BME280;6243;51.244;6.774;2024-02-26T05:43:35;115150.97;;;-141.28;51.33
12358;BME280;6243;51.244;6.774;2024-02-26T05:46:02;115150.97;;;-141.28;50.75
12358;BME280;6243;51.244;6.774;2024-02-26T05:48:28;115150.97;;;-141.28;50.88
12358;BME280;6243;51.244;6.774;2024-02-26T05:50:53;115150.97;;;-141.28;50.63
12358;BME280;6243;51.244;6.774;2024-02-26T05:53:19;115150.97;;;-141.28;50.76
12358;BME280;6243;51.244;6.774;2024-02-26T05:55:44;115150.97;;;-141.28;50.34
12358;BME280;6243;51.244;6.774;2024-02-26T05:58:10;115150.97;;;-141.28;51.52
12358;BME280;6243;51.244;6.774;2024-02-26T06:00:35;115150.97;;;-141.28;50.79
12358;BME280;6243;51.244;6.774;2024-02-26T06:03:02;115150.97;;;-141.28;52.12
12358;BME280;6243;51.244;6.774;2024-02-26T06:05:28;115150.97;;;-141.28;50.77
12358;BME280;6243;51.244;6.774;2024-02-26T06:07:53;115150.97;;;-141.28;51.36
12358;BME280;6243;51.244;6.774;2024-02-26T06:10:20;115150.97;;;-141.28;51.76
12358;BME280;6243;51.244;6.774;2024-02-26T06:12:45;115150.97;;;-141.28;50.64
12358;BME280;6243;51.244;6.774;2024-02-26T06:15:11;115150.97;;;-141.28;51.38
12358;BME280;6243;51.244;6.774;2024-02-26T06:17:37;115150.97;;;-141.28;51.34
12358;BME280;6243;51.244;6.774;2024-02-26T06:20:05;115150.97;;;-141.28;51.57
12358;BME280;6243;51.244;6.774;2024-02-26T06:22:30;115150.97;;;-141.28;53.69
12358;BME280;6243;51.244;6.774;2024-02-26T06:24:56;115150.97;;;-141.28;52.11
12358;BME280;6243;51.244;6.774;2024-02-26T06:27:22;115150.97;;;-141.28;50.59
12358;BME280;6243;51.244;6.774;2024-02-26T06:29:48;115150.97;;;-141.28;50.48
12358;BME280;6243;51.244;6.774;2024-02-26T06:32:14;115150.97;;;-141.28;50.33
12358;BME280;6243;51.244;6.774;2024-02-26T06:34:39;115150.97;;;-141.28;51.89
12358;BME280;6243;51.244;6.774;2024-02-26T06:37:06;115150.97;;;-141.28;52.01
12358;BME280;6243;51.244;6.774;2024-02-26T06:39:31;115150.97;;;-141.28;51.44
12358;BME280;6243;51.244;6.774;2024-02-26T06:41:57;115150.97;;;-141.28;50.18
12358;BME280;6243;51.244;6.774;2024-02-26T06:44:22;115150.97;;;-141.28;49.10
12358;BME280;6243;51.244;6.774;2024-02-26T06:46:48;115150.97;;;-141.28;48.99
12358;BME280;6243;51.244;6.774;2024-02-26T06:49:13;115150.97;;;-141.28;51.46
12358;BME280;6243;51.244;6.774;2024-02-26T06:51:39;115150.97;;;-141.28;51.33
12358;BME280;6243;51.244;6.774;2024-02-26T06:54:06;115150.97;;;-141.28;49.62
12358;BME280;6243;51.244;6.774;2024-02-26T06:56:31;115150.97;;;-141.28;48.84
12358;BME280;6243;51.244;6.774;2024-02-26T06:58:57;115150.97;;;-141.28;49.57
12358;BME280;6243;51.244;6.774;2024-02-26T07:01:22;115150.97;;;-141.28;48.58
12358;BME280;6243;51.244;6.774;2024-02-26T07:03:48;115150.97;;;-141.28;49.03
12358;BME280;6243;51.244;6.774;2024-02-26T07:06:13;115150.97;;;-141.28;49.05
12358;BME280;6243;51.244;6.774;2024-02-26T07:08:39;115150.97;;;-141.28;50.19
12358;BME280;6243;51.244;6.774;2024-02-26T07:11:08;115150.97;;;-141.28;48.67
12358;BME280;6243;51.244;6.774;2024-02-26T07:13:34;115150.97;;;-141.28;48.78
12358;BME280;6243;51.244;6.774;2024-02-26T07:15:59;115150.97;;;-141.28;48.90
12358;BME280;6243;51.244;6.774;2024-02-26T07:18:25;115150.97;;;-141.28;48.67
12358;BME280;6243;51.244;6.774;2024-02-26T07:20:50;115150.97;;;-141.28;48.42
12358;BME280;6243;51.244;6.774;2024-02-26T07:23:16;115150.97;;;-141.28;47.82
12358;BME280;6243;51.244;6.774;2024-02-26T07:25:41;115150.97;;;-141.28;48.64
12358;BME280;6243;51.244;6.774;2024-02-26T07:28:08;115150.97;;;-141.28;49.43
12358;BME280;6243;51.244;6.774;2024-02-26T07:30:33;115150.97;;;-141.28;49.30
12358;BME280;6243;51.244;6.774;2024-02-26T07:32:59;115150.97;;;-141.28;49.53
12358;BME280;6243;51.244;6.774;2024-02-26T07:35:24;115150.97;;;-141.28;47.94
12358;BME280;6243;51.244;6.774;2024-02-26T07:37:50;115150.97;;;-141.28;49.38
12358;BME280;6243;51.244;6.774;2024-02-26T07:40:15;115150.97;;;-141.28;47.95
12358;BME280;6243;51.244;6.774;2024-02-26T07:42:41;115150.97;;;-141.28;47.67
12358;BME280;6243;51.244;6.774;2024-02-26T07:45:09;115150.97;;;-141.28;47.99
12358;BME280;6243;51.244;6.774;2024-02-26T07:47:35;115150.97;;;-141.28;48.15
12358;BME280;6243;51.244;6.774;2024-02-26T07:50:00;115150.97;;;-141.28;47.27
12358;BME280;6243;51.244;6.774;2024-02-26T07:52:26;115150.97;;;-141.28;47.95
12358;BME280;6243;51.244;6.774;2024-02-26T07:54:51;115150.97;;;-141.28;47.37
12358;BME280;6243;51.244;6.774;2024-02-26T07:57:17;115150.97;;;-141.28;47.77
12358;BME280;6243;51.244;6.774;2024-02-26T07:59:42;115150.97;;;-141.28;47.93
12358;BME280;6243;51.244;6.774;2024-02-26T08:02:09;115150.97;;;-141.28;49.48
12358;BME280;6243;51.244;6.774;2024-02-26T08:04:35;115150.97;;;-141.28;49.38
12358;BME280;6243;51.244;6.774;2024-02-26T08:07:00;115150.97;;;-141.28;48.38
12358;BME280;6243;51.244;6.774;2024-02-26T08:09:26;115150.97;;;-141.28;47.34
12358;BME280;6243;51.244;6.774;2024-02-26T08:11:51;115150.97;;;-141.28;48.55
12358;BME280;6243;51.244;6.774;2024-02-26T08:14:17;115150.97;;;-141.28;47.85
12358;BME280;6243;51.244;6.774;2024-02-26T08:16:42;115150.97;;;-141.28;47.06
12358;BME280;6243;51.244;6.774;2024-02-26T08:19:09;115150.97;;;-141.28;47.92
12358;BME280;6243;51.244;6.774;2024-02-26T08:21:34;115150.97;;;-141.28;48.59
12358;BME280;6243;51.244;6.774;2024-02-26T08:24:00;115150.97;;;-141.28;48.04
12358;BME280;6243;51.244;6.774;2024-02-26T08:26:26;115150.97;;;-141.28;48.19
12358;BME280;6243;51.244;6.774;2024-02-26T08:28:51;115150.97;;;-141.28;48.33
12358;BME280;6243;51.244;6.774;2024-02-26T08:31:17;115150.97;;;-141.28;48.88
12358;BME280;6243;51.244;6.774;2024-02-26T08:33:42;115150.97;;;-141.28;48.17
12358;BME280;6243;51.244;6.774;2024-02-26T08:36:11;115150.97;;;-141.28;47.68
12358;BME280;6243;51.244;6.774;2024-02-26T08:38:36;115150.97;;;-141.28;46.85
12358;BME280;6243;51.244;6.774;2024-02-26T08:41:02;115150.97;;;-141.28;47.25
12358;BME280;6243;51.244;6.774;2024-02-26T08:43:28;115150.97;;;-141.28;46.90
12358;BME280;6243;51.244;6.774;2024-02-26T08:45:53;115150.97;;;-141.28;47.62
12358;BME280;6243;51.244;6.774;2024-02-26T08:48:19;115150.97;;;-141.28;46.96
12358;BME280;6243;51.244;6.774;2024-02-26T08:50:44;115150.97;;;-141.28;47.13
12358;BME280;6243;51.244;6.774;2024-02-26T08:53:11;115150.97;;;-141.28;47.03
12358;BME280;6243;51.244;6.774;2024-02-26T08:55:37;115150.97;;;-141.28;46.83
12358;BME280;6243;51.244;6.774;2024-02-26T08:58:02;115150.97;;;-141.28;46.68
12358;BME280;6243;51.244;6.774;2024-02-26T09:00:28;115150.97;;;-141.28;47.17
12358;BME280;6243;51.244;6.774;2024-02-26T09:02:53;115150.97;;;-141.28;46.56
12358;BME280;6243;51.244;6.774;2024-02-26T09:05:19;115150.97;;;-141.28;47.18
12358;BME280;6243;51.244;6.774;2024-02-26T09:07:44;115150.97;;;-141.28;47.42
12358;BME280;6243;51.244;6.774;2024-02-26T09:10:12;115150.97;;;-141.28;48.78
12358;BME280;6243;51.244;6.774;2024-02-26T09:12:37;115150.97;;;-141.28;48.65
12358;BME280;6243;51.244;6.774;2024-02-26T09:15:03;115150.97;;;-141.28;48.02
12358;BME280;6243;51.244;6.774;2024-02-26T09:17:29;115150.97;;;-141.28;47.32
12358;BME280;6243;51.244;6.774;2024-02-26T09:19:54;115150.97;;;-141.28;48.10
12358;BME280;6243;51.244;6.774;2024-02-26T09:22:20;115150.97;;;-141.28;48.24
12358;BME280;6243;51.244;6.774;2024-02-26T09:24:45;115150.97;;;-141.28;49.43
12358;BME280;6243;51.244;6.774;2024-02-26T09:27:12;115150.97;;;-141.28;48.77
12358;BME280;6243;51.244;6.774;2024-02-26T09:29:38;115150.97;;;-141.28;49.18
12358;BME280;6243;51.244;6.774;2024-02-26T09:32:04;115150.97;;;-141.28;50.46
12358;BME280;6243;51.244;6.774;2024-02-26T09:34:29;115150.97;;;-141.28;49.18
12358;BME280;6243;51.244;6.774;2024-02-26T09:36:55;115150.97;;;-141.28;49.21
12358;BME280;6243;51.244;6.774;2024-02-26T09:39:20;115150.97;;;-141.28;47.90
12358;BME280;6243;51.244;6.774;2024-02-26T09:41:46;115150.97;;;-141.28;47.22
12358;BME280;6243;51.244;6.774;2024-02-26T09:44:14;115150.97;;;-141.28;48.13
12358;BME280;6243;51.244;6.774;2024-02-26T09:46:44;115150.97;;;-141.28;49.08
12358;BME280;6243;51.244;6.774;2024-02-26T09:49:11;115150.97;;;-141.28;48.13
12358;BME280;6243;51.244;6.774;2024-02-26T09:51:37;115150.97;;;-141.28;47.45
12358;BME280;6243;51.244;6.774;2024-02-26T09:54:03;115150.97;;;-141.28;49.50
12358;BME280;6243;51.244;6.774;2024-02-26T09:56:30;115150.97;;;-141.28;49.08
12358;BME280;6243;51.244;6.774;2024-02-26T09:58:56;115150.97;;;-141.28;49.71
12358;BME280;6243;51.244;6.774;2024-02-26T10:01:24;115150.97;;;-141.28;49.67
12358;BME280;6243;51.244;6.774;2024-02-26T10:03:54;115150.97;;;-141.28;48.80
12358;BME280;6243;51.244;6.774;2024-02-26T10:06:20;115150.97;;;-141.28;49.97
12358;BME280;6243;51.244;6.774;2024-02-26T10:08:47;115150.97;;;-141.28;50.17
12358;BME280;6243;51.244;6.774;2024-02-26T10:11:13;115150.97;;;-141.28;50.08
12358;BME280;6243;51.244;6.774;2024-02-26T10:13:40;115150.97;;;-141.28;49.33
12358;BME280;6243;51.244;6.774;2024-02-26T10:16:06;115150.97;;;-141.28;48.60
12358;BME280;6243;51.244;6.774;2024-02-26T10:18:46;115150.97;;;-141.28;48.88
12358;BME280;6243;51.244;6.774;2024-02-26T10:21:12;115150.97;;;-141.28;48.71
12358;BME280;6243;51.244;6.774;2024-02-26T10:23:37;115150.97;;;-141.28;49.78
12358;BME280;6243;51.244;6.774;2024-02-26T10:26:03;115150.97;;;-141.28;51.56
12358;BME280;6243;51.244;6.774;2024-02-26T10:28:30;115150.97;;;-141.28;53.01
12358;BME280;6243;51.244;6.774;2024-02-26T10:30:55;115150.97;;;-141.28;52.86
12358;BME280;6243;51.244;6.774;2024-02-26T10:33:22;115150.97;;;-141.28;51.36
12358;BME280;6243;51.244;6.774;2024-02-26T10:35:49;115150.97;;;-141.28;53.35
12358;BME280;6243;51.244;6.774;2024-02-26T10:38:14;115150.97;;;-141.28;52.33
12358;BME280;6243;51.244;6.774;2024-02-26T10:40:40;115150.97;;;-141.28;51.84
12358;BME280;6243;51.244;6.774;2024-02-26T10:43:05;115150.97;;;-141.28;51.63
12358;BME280;6243;51.244;6.774;2024-02-26T10:45:32;115150.97;;;-141.28;52.73
12358;BME280;6243;51.244;6.774;2024-02-26T10:47:57;115150.97;;;-141.28;52.48
12358;BME280;6243;51.244;6.774;2024-02-26T10:50:24;115150.97;;;-141.28;50.87
12358;BME280;6243;51.244;6.774;2024-02-26T10:52:51;115150.97;;;-141.28;50.63
12358;BME280;6243;51.244;6.774;2024-02-26T10:55:17;115150.97;;;-141.28;51.78
12358;BME280;6243;51.244;6.774;2024-02-26T10:57:44;115150.97;;;-141.28;51.78
12358;BME280;6243;51.244;6.774;2024-02-26T11:00:13;115150.97;;;-141.28;52.71
12358;BME280;6243;51.244;6.774;2024-02-26T11:02:40;115150.97;;;-141.28;53.53
12358;BME280;6243;51.244;6.774;2024-02-26T11:05:06;115150.97;;;-141.28;53.92
12358;BME280;6243;51.244;6.774;2024-02-26T11:07:33;115150.97;;;-141.28;52.25
12358;BME280;6243;51.244;6.774;2024-02-26T11:10:02;115150.97;;;-141.28;52.87
12358;BME280;6243;51.244;6.774;2024-02-26T11:12:30;115150.97;;;-141.28;51.84
12358;BME280;6243;51.244;6.774;2024-02-26T11:14:56;115150.97;;;-141.28;52.64
12358;BME280;6243;51.244;6.774;2024-02-26T11:17:22;115150.97;;;-141.28;52.19
12358;BME280;6243;51.244;6.774;2024-02-26T11:19:50;115150.97;;;-141.28;52.68
12358;BME280;6243;51.244;6.774;2024-02-26T11:22:16;115150.97;;;-141.28;53.29
12358;BME280;6243;51.244;6.774;2024-02-26T11:24:42;115150.97;;;-141.28;54.78
12358;BME280;6243;51.244;6.774;2024-02-26T11:27:10;115150.97;;;-141.28;55.00
12358;BME280;6243;51.244;6.774;2024-02-26T11:29:39;115150.97;;;-141.28;55.73
12358;BME280;6243;51.244;6.774;2024-02-26T11:32:10;115150.97;;;-141.28;56.37
12358;BME280;6243;51.244;6.774;2024-02-26T11:34:36;115150.97;;;-141.28;56.40
12358;BME280;6243;51.244;6.774;2024-02-26T11:37:09;115150.97;;;-141.28;55.55
12358;BME280;6243;51.244;6.774;2024-02-26T11:39:35;115150.97;;;-141.28;56.17
12358;BME280;6243;51.244;6.774;2024-02-26T11:42:05;115150.97;;;-141.28;55.28
12358;BME280;6243;51.244;6.774;2024-02-26T11:44:32;115150.97;;;-141.28;54.56
12358;BME280;6243;51.244;6.774;2024-02-26T11:46:57;115150.97;;;-141.28;53.01
12358;BME280;6243;51.244;6.774;2024-02-26T11:49:30;115150.97;;;-141.28;54.00
12358;BME280;6243;51.244;6.774;2024-02-26T11:51:57;115150.97;;;-141.28;54.89
12358;BME280;6243;51.244;6.774;2024-02-26T11:54:44;115150.97;;;-141.28;54.43
12358;BME280;6243;51.244;6.774;2024-02-26T11:57:26;115150.97;;;-141.28;55.90
12358;BME280;6243;51.244;6.774;2024-02-26T11:59:54;115150.97;;;-141.28;55.35
12358;BME280;6243;51.244;6.774;2024-02-26T12:02:39;115150.97;;;-141.28;53.89
12358;BME280;6243;51.244;6.774;2024-02-26T12:05:06;115150.97;;;-141.28;54.96
12358;BME280;6243;51.244;6.774;2024-02-26T12:07:34;115150.97;;;-141.28;53.27
12358;BME280;6243;51.244;6.774;2024-02-26T12:10:15;115150.97;;;-141.28;54.74
12358;BME280;6243;51.244;6.774;2024-02-26T12:12:41;115150.97;;;-141.28;54.93
12358;BME280;6243;51.244;6.774;2024-02-26T12:15:09;115150.97;;;-141.28;55.86
12358;BME280;6243;51.244;6.774;2024-02-26T12:17:34;115150.97;;;-141.28;54.46
12358;BME280;6243;51.244;6.774;2024-02-26T12:20:08;115150.97;;;-141.28;54.49
12358;BME280;6243;51.244;6.774;2024-02-26T12:22:34;115150.97;;;-141.28;52.23
12358;BME280;6243;51.244;6.774;2024-02-26T12:25:00;115150.97;;;-141.28;52.84
12358;BME280;6243;51.244;6.774;2024-02-26T12:27:25;115150.97;;;-141.28;52.32
12358;BME280;6243;51.244;6.774;2024-02-26T12:29:53;115150.97;;;-141.28;52.16
12358;BME280;6243;51.244;6.774;2024-02-26T12:32:19;115150.97;;;-141.28;52.22
12358;BME280;6243;51.244;6.774;2024-02-26T12:34:45;115150.97;;;-141.28;52.78